Time;durP1;ratioP1;P1;durP2;ratioP2;P2;SDS_P1;SDS_P2;PMS_P1;PMS_P2;Temp;Humidity;BMP_temperature;BMP_pressure;BME280_temperature;BME280_humidity;BME280_pressure;Samples;Min_cycle;Max_cycle;Signal;HPM_P1;HPM_P2
2023/09/24 00:01:13;;;;;;;94.47;90.03;;;;;;;17.05;57.88;102187.81;4955591;28;20039;-69
2023/09/24 00:03:39;;;;;;;93.40;88.97;;;;;;;17.03;57.96;102192.69;4960301;28;20517;-68
2023/09/24 00:06:06;;;;;;;92.78;88.47;;;;;;;17.02;57.62;102204.69;4962901;28;20046;-70
2023/09/24 00:08:32;;;;;;;92.10;88.00;;;;;;;17.02;57.82;102199.25;4966629;28;20031;-68
2023/09/24 00:10:58;;;;;;;91.85;87.60;;;;;;;16.99;57.98;102203.31;4952854;28;20035;-68
2023/09/24 00:13:25;;;;;;;93.85;89.05;;;;;;;16.98;57.91;102207.09;4962571;28;20035;-69
2023/09/24 00:15:51;;;;;;;94.28;90.00;;;;;;;16.97;57.85;102210.09;4962277;28;20039;-69
2023/09/24 00:18:17;;;;;;;95.57;91.35;;;;;;;16.95;57.85;102212.22;4959591;28;20027;-70
2023/09/24 00:20:43;;;;;;;93.13;88.93;;;;;;;16.94;58.04;102218.78;4952952;28;20043;-68
2023/09/24 00:23:10;;;;;;;92.65;88.35;;;;;;;16.93;57.73;102211.66;4964519;28;20089;-68
2023/09/24 00:25:36;;;;;;;90.15;86.05;;;;;;;16.91;58.14;102211.06;4968685;28;20035;-71
2023/09/24 00:28:02;;;;;;;96.57;92.20;;;;;;;16.90;58.08;102212.16;4967643;28;20035;-69
2023/09/24 00:30:27;;;;;;;89.20;85.20;;;;;;;16.87;57.93;102213.47;4960638;28;20063;-68
2023/09/24 00:32:53;;;;;;;93.50;89.10;;;;;;;16.86;58.32;102215.38;4954580;28;20095;-69
2023/09/24 00:35:19;;;;;;;90.45;86.13;;;;;;;16.85;58.00;102212.91;4960165;28;20126;-67
2023/09/24 00:37:44;;;;;;;92.43;88.03;;;;;;;16.84;58.18;102220.25;4967618;28;20545;-68
2023/09/24 00:40:11;;;;;;;90.00;85.63;;;;;;;16.83;58.21;102209.59;4968066;28;20066;-69
2023/09/24 00:42:37;;;;;;;90.68;86.57;;;;;;;16.81;57.77;102215.31;4959511;28;20050;-69
2023/09/24 00:45:06;;;;;;;87.78;83.82;;;;;;;16.80;57.71;102221.81;4958364;28;20039;-69
2023/09/24 00:47:32;;;;;;;90.07;86.07;;;;;;;16.78;57.98;102218.53;4955808;28;20361;-70
2023/09/24 00:49:58;;;;;;;88.13;84.18;;;;;;;16.76;57.98;102228.84;4970595;28;20049;-69
2023/09/24 00:52:25;;;;;;;88.32;84.32;;;;;;;16.76;58.02;102225.28;4972507;28;20046;-70
2023/09/24 00:54:51;;;;;;;90.47;86.18;;;;;;;16.74;57.69;102227.44;4970250;28;20031;-71
2023/09/24 00:57:17;;;;;;;90.10;85.97;;;;;;;16.72;58.06;102216.75;4964421;28;20062;-69
2023/09/24 00:59:46;;;;;;;89.38;85.30;;;;;;;16.70;57.86;102226.28;4968374;28;20046;-68
2023/09/24 01:02:13;;;;;;;89.43;85.22;;;;;;;16.68;57.94;102226.50;4966357;28;20498;-70
2023/09/24 01:04:39;;;;;;;88.07;84.10;;;;;;;16.67;57.62;102228.41;4962770;28;20037;-69
2023/09/24 01:07:05;;;;;;;88.47;84.00;;;;;;;16.66;57.82;102229.50;4960248;28;20031;-72
2023/09/24 01:09:30;;;;;;;88.78;84.72;;;;;;;16.65;57.90;102224.28;4970785;28;20031;-70
2023/09/24 01:11:57;;;;;;;89.20;85.20;;;;;;;16.63;58.02;102223.69;4959586;28;20038;-70
2023/09/24 01:14:25;;;;;;;91.07;87.07;;;;;;;16.62;57.91;102225.59;4955643;28;20059;-69
2023/09/24 01:16:50;;;;;;;88.40;84.43;;;;;;;16.60;58.08;102226.91;4957766;28;20047;-69
2023/09/24 01:19:16;;;;;;;90.20;85.82;;;;;;;16.59;58.17;102230.72;4971468;28;20053;-70
2023/09/24 01:21:41;;;;;;;90.38;86.22;;;;;;;16.56;57.76;102226.59;4964226;28;20110;-69
2023/09/24 01:24:07;;;;;;;88.85;84.57;;;;;;;16.55;58.20;102224.94;4973285;28;20121;-69
2023/09/24 01:26:34;;;;;;;90.53;86.38;;;;;;;16.54;58.01;102219.72;4971426;28;20042;-68
2023/09/24 01:29:00;;;;;;;85.72;81.70;;;;;;;16.52;57.82;102219.16;4967117;28;20050;-68
2023/09/24 01:31:26;;;;;;;86.65;82.70;;;;;;;16.51;58.21;102223.78;4959365;28;20035;-68
2023/09/24 01:33:52;;;;;;;90.35;86.25;;;;;;;16.49;57.90;102217.75;4958545;28;20047;-70
2023/09/24 01:36:19;;;;;;;87.43;83.22;;;;;;;16.47;58.09;102222.59;4966619;28;20088;-68
2023/09/24 01:38:45;;;;;;;84.97;81.07;;;;;;;16.48;58.04;102220.69;4960858;28;20027;-71
2023/09/24 01:41:11;;;;;;;86.65;82.60;;;;;;;16.46;58.01;102220.16;4957698;28;20038;-70
2023/09/24 01:43:37;;;;;;;87.68;83.78;;;;;;;16.44;57.96;102220.38;4969931;28;20533;-68
2023/09/24 01:46:06;;;;;;;84.47;80.68;;;;;;;16.42;57.81;102225.25;4967036;28;20034;-71
2023/09/24 01:48:35;;;;;;;87.63;83.63;;;;;;;16.40;58.06;102220.06;4971672;28;20085;-69
2023/09/24 01:51:07;;;;;;;86.95;83.05;;;;;;;16.39;57.85;102229.28;4961695;28;20042;-69
2023/09/24 01:53:33;;;;;;;85.40;81.55;;;;;;;16.39;58.10;102228.47;4969778;28;20118;-68
2023/09/24 01:56:00;;;;;;;86.82;82.88;;;;;;;16.37;57.74;102225.16;4973541;28;20053;-70
2023/09/24 01:58:26;;;;;;;84.30;80.50;;;;;;;16.36;57.88;102231.69;4969165;28;20714;-71
2023/09/24 02:00:51;;;;;;;83.75;79.78;;;;;;;16.33;57.66;102219.38;4972963;28;20506;-70
2023/09/24 02:03:17;;;;;;;87.93;83.20;;;;;;;16.32;58.06;102225.06;4964832;28;20039;-70
2023/09/24 02:05:43;;;;;;;81.25;77.57;;;;;;;16.31;57.64;102221.53;4971386;28;20045;-70
2023/09/24 02:08:09;;;;;;;82.47;78.78;;;;;;;16.30;58.04;102224.47;4967291;28;20042;-72
2023/09/24 02:10:39;;;;;;;85.20;81.00;;;;;;;16.28;57.81;102224.75;4972787;28;20500;-69
2023/09/24 02:13:04;;;;;;;79.88;76.18;;;;;;;16.26;58.01;102226.88;4963865;28;20119;-68
2023/09/24 02:15:30;;;;;;;81.78;78.05;;;;;;;16.24;58.02;102223.56;4962069;28;20399;-67
2023/09/24 02:17:55;;;;;;;85.72;81.93;;;;;;;16.23;57.95;102228.19;4964738;28;20041;-69
2023/09/24 02:20:25;;;;;;;86.10;82.20;;;;;;;16.22;57.78;102218.34;4964527;28;20038;-67
2023/09/24 02:22:56;;;;;;;84.07;80.22;;;;;;;16.21;57.89;102219.44;4961311;28;20091;-68
2023/09/24 02:25:23;;;;;;;88.00;83.57;;;;;;;16.20;58.23;102227.84;4968575;28;20042;-68
2023/09/24 02:27:50;;;;;;;85.63;81.63;;;;;;;16.17;57.97;102229.16;4970421;28;20038;-68
2023/09/24 02:30:16;;;;;;;86.45;82.45;;;;;;;16.16;58.08;102235.69;4962027;28;20114;-68
2023/09/24 02:32:43;;;;;;;83.57;79.80;;;;;;;16.15;57.74;102239.50;4963096;28;20546;-69
2023/09/24 02:35:11;;;;;;;86.68;82.43;;;;;;;16.13;58.18;102251.72;4967695;28;20035;-71
2023/09/24 02:37:37;;;;;;;85.53;81.60;;;;;;;16.12;57.92;102250.88;4968075;28;20035;-69
2023/09/24 02:40:05;;;;;;;83.88;79.68;;;;;;;16.11;57.95;102243.78;4954558;28;20043;-68
2023/09/24 02:42:31;;;;;;;83.30;79.50;;;;;;;16.10;57.85;102249.47;4958622;28;20076;-69
2023/09/24 02:44:56;;;;;;;85.97;82.00;;;;;;;16.08;57.73;102247.00;4971176;28;20561;-69
2023/09/24 02:47:22;;;;;;;83.93;80.03;;;;;;;16.08;57.85;102251.63;4962081;28;20053;-69
2023/09/24 02:49:48;;;;;;;85.25;81.15;;;;;;;16.06;57.70;102249.13;4964279;28;20035;-69
2023/09/24 02:52:14;;;;;;;85.45;80.65;;;;;;;16.05;58.08;102242.03;4969027;28;20514;-69
2023/09/24 02:54:40;;;;;;;84.88;81.07;;;;;;;16.03;58.08;102252.34;4971272;28;20070;-68
2023/09/24 02:57:05;;;;;;;83.28;79.28;;;;;;;16.02;57.71;102246.03;4969617;28;20050;-69
2023/09/24 02:59:31;;;;;;;83.85;80.05;;;;;;;16.00;58.18;102245.47;4968787;28;20130;-68
2023/09/24 03:01:57;;;;;;;83.15;79.45;;;;;;;16.00;57.73;102241.91;4967550;28;20043;-68
2023/09/24 03:04:22;;;;;;;82.25;78.35;;;;;;;15.99;58.02;102240.25;4971268;28;20125;-69
2023/09/24 03:06:48;;;;;;;84.15;80.35;;;;;;;15.98;58.00;102249.53;4969442;28;20483;-68
2023/09/24 03:09:14;;;;;;;84.40;80.43;;;;;;;15.95;57.70;102248.09;4960258;28;20134;-71
2023/09/24 03:11:40;;;;;;;83.43;79.53;;;;;;;15.94;57.80;102249.16;4958769;28;20039;-68
2023/09/24 03:14:06;;;;;;;82.60;78.65;;;;;;;15.92;58.25;102245.84;4972492;28;20041;-68
2023/09/24 03:16:32;;;;;;;84.20;80.10;;;;;;;15.91;58.14;102251.56;4962561;28;20571;-69
2023/09/24 03:18:57;;;;;;;82.50;78.80;;;;;;;15.91;57.80;102251.56;4963006;28;20467;-69
2023/09/24 03:21:22;;;;;;;87.38;83.28;;;;;;;15.90;57.51;102249.88;4952994;28;20040;-68
2023/09/24 03:23:48;;;;;;;81.10;77.45;;;;;;;15.88;57.72;102250.13;4961813;28;20043;-68
2023/09/24 03:26:16;;;;;;;84.43;80.32;;;;;;;15.87;57.68;102253.09;4954780;28;20046;-73
2023/09/24 03:28:42;;;;;;;86.85;82.70;;;;;;;15.85;57.86;102261.53;4969439;28;20038;-68
2023/09/24 03:31:13;;;;;;;83.82;80.07;;;;;;;15.84;58.14;102257.13;4953788;28;20027;-68
2023/09/24 03:33:38;;;;;;;79.30;75.32;;;;;;;15.83;57.83;102251.94;4967017;28;20041;-68
2023/09/24 03:36:05;;;;;;;81.70;78.07;;;;;;;15.82;57.61;102261.16;4953622;28;20392;-69
2023/09/24 03:38:31;;;;;;;81.15;77.15;;;;;;;15.81;57.59;102259.53;4963618;28;20069;-68
2023/09/24 03:40:57;;;;;;;85.68;81.35;;;;;;;15.79;57.69;102260.56;4965580;28;20116;-66
2023/09/24 03:43:22;;;;;;;83.55;79.45;;;;;;;15.77;57.96;102260.00;4953179;28;20067;-69
2023/09/24 03:45:48;;;;;;;80.50;76.80;;;;;;;15.76;57.93;102257.50;4967354;28;20049;-67
2023/09/24 03:48:13;;;;;;;82.15;78.32;;;;;;;15.74;57.70;102260.47;4969889;28;20061;-68
2023/09/24 03:50:39;;;;;;;79.20;75.47;;;;;;;15.72;57.93;102262.63;4968482;28;20050;-66
2023/09/24 03:53:04;;;;;;;78.63;75.05;;;;;;;15.71;57.97;102269.13;4953346;28;20291;-66
2023/09/24 03:55:30;;;;;;;83.60;79.45;;;;;;;15.70;57.61;102280.25;4952521;28;20031;-66
2023/09/24 03:57:55;;;;;;;79.45;75.85;;;;;;;15.69;57.60;102276.69;4964456;28;20047;-67
2023/09/24 04:00:21;;;;;;;80.60;76.65;;;;;;;15.68;58.05;102272.31;4966144;28;20042;-66
2023/09/24 04:02:48;;;;;;;79.90;76.20;;;;;;;15.67;57.73;102280.69;4971929;28;20070;-67
2023/09/24 04:05:19;;;;;;;77.95;73.95;;;;;;;15.66;58.17;102279.88;4953662;28;20049;-66
2023/09/24 04:07:46;;;;;;;79.00;75.25;;;;;;;15.65;57.57;102283.69;4951742;28;20039;-66
2023/09/24 04:10:14;;;;;;;81.07;77.28;;;;;;;15.64;58.00;102282.00;4963051;28;20057;-67
2023/09/24 04:12:46;;;;;;;78.57;74.97;;;;;;;15.63;57.71;102280.38;4966371;28;20031;-67
2023/09/24 04:15:14;;;;;;;78.10;74.10;;;;;;;15.61;57.55;102287.94;4953283;28;20051;-66
2023/09/24 04:17:40;;;;;;;78.55;74.82;;;;;;;15.59;57.76;102285.44;4954173;28;20086;-66
2023/09/24 04:20:15;;;;;;;78.07;74.18;;;;;;;15.58;57.90;102289.25;4956360;28;20027;-66
2023/09/24 04:22:44;;;;;;;76.60;73.00;;;;;;;15.57;57.71;102290.31;4969347;28;20070;-66
2023/09/24 04:25:21;;;;;;;76.78;73.28;;;;;;;15.56;57.73;102285.09;4969164;28;20029;-66
2023/09/24 04:27:48;;;;;;;77.00;73.45;;;;;;;15.55;57.86;102289.72;4968912;28;20035;-67
2023/09/24 04:30:16;;;;;;;83.63;79.80;;;;;;;15.53;57.76;102294.56;4962642;28;20090;-67
2023/09/24 04:32:51;;;;;;;76.20;72.63;;;;;;;15.52;57.82;102303.81;4972268;28;20074;-66
2023/09/24 04:35:19;;;;;;;77.07;73.50;;;;;;;15.50;58.00;102295.06;4964457;28;20098;-66
2023/09/24 04:37:48;;;;;;;78.85;75.25;;;;;;;15.50;58.07;102302.41;4967172;28;20031;-66
2023/09/24 04:40:16;;;;;;;77.57;73.90;;;;;;;15.48;57.45;102299.09;4959860;28;20035;-66
2023/09/24 04:42:43;;;;;;;78.85;75.22;;;;;;;15.47;57.74;102301.00;4957683;28;20046;-67
2023/09/24 04:45:12;;;;;;;79.45;75.38;;;;;;;15.45;57.58;102303.13;4965086;28;20043;-66
2023/09/24 04:47:39;;;;;;;80.57;76.88;;;;;;;15.45;57.71;102305.00;4956560;28;20433;-66
2023/09/24 04:50:06;;;;;;;76.25;72.75;;;;;;;15.44;57.80;102303.34;4966972;28;20049;-66
2023/09/24 04:52:32;;;;;;;78.68;74.97;;;;;;;15.42;57.93;102300.03;4960949;28;20039;-67
2023/09/24 04:54:57;;;;;;;78.35;74.57;;;;;;;15.41;57.99;102307.38;4969857;28;20027;-66
2023/09/24 04:57:22;;;;;;;81.30;77.32;;;;;;;15.39;57.58;102293.16;4972490;28;20051;-70
2023/09/24 04:59:53;;;;;;;77.53;73.82;;;;;;;15.38;57.86;102304.31;4972807;28;20033;-67
2023/09/24 05:02:20;;;;;;;77.25;73.70;;;;;;;15.37;57.95;102306.16;4970734;28;20035;-67
2023/09/24 05:04:46;;;;;;;76.97;73.47;;;;;;;15.35;57.87;102297.44;4968600;28;20062;-67
2023/09/24 05:07:11;;;;;;;76.20;72.60;;;;;;;15.34;58.11;102299.31;4956004;28;20077;-66
2023/09/24 05:09:37;;;;;;;80.90;77.03;;;;;;;15.32;57.76;102301.47;4970703;28;20035;-67
2023/09/24 05:12:02;;;;;;;76.85;73.35;;;;;;;15.32;57.67;102311.50;4962696;28;20044;-67
2023/09/24 05:14:28;;;;;;;77.85;74.10;;;;;;;15.30;57.86;102302.75;4961759;28;20035;-68
2023/09/24 05:16:54;;;;;;;76.30;72.43;;;;;;;15.29;57.54;102311.97;4965860;28;20065;-68
2023/09/24 05:19:19;;;;;;;76.72;73.30;;;;;;;15.29;57.98;102306.53;4967934;28;20091;-68
2023/09/24 05:21:45;;;;;;;76.93;73.43;;;;;;;15.26;57.85;102316.00;4961898;28;20123;-67
2023/09/24 05:24:10;;;;;;;78.75;75.15;;;;;;;15.25;58.02;102318.97;4965746;28;20050;-67
2023/09/24 05:26:36;;;;;;;79.82;75.88;;;;;;;15.24;58.01;102320.03;4961140;28;20130;-67
2023/09/24 05:29:02;;;;;;;76.10;72.60;;;;;;;15.23;58.09;102324.66;4969431;28;20048;-69
2023/09/24 05:31:27;;;;;;;75.40;71.97;;;;;;;15.21;57.66;102329.47;4961597;28;20555;-69
2023/09/24 05:33:53;;;;;;;75.28;71.85;;;;;;;15.20;57.92;102327.84;4956911;28;20053;-67
2023/09/24 05:36:18;;;;;;;75.45;72.03;;;;;;;15.20;57.78;102329.75;4967607;28;20395;-67
2023/09/24 05:38:43;;;;;;;76.68;73.13;;;;;;;15.20;57.72;102329.75;4964473;28;20039;-66
2023/09/24 05:41:09;;;;;;;71.25;67.97;;;;;;;15.17;57.76;102339.22;4958228;28;20070;-66
2023/09/24 05:43:35;;;;;;;76.80;72.72;;;;;;;15.17;57.76;102346.53;4958974;28;20479;-66
2023/09/24 05:46:04;;;;;;;77.22;73.72;;;;;;;15.14;57.96;102340.50;4963249;28;20043;-66
2023/09/24 05:48:29;;;;;;;;;;;;;;;15.13;57.81;102341.53;4969235;28;20049;-69
2023/09/24 05:50:54;;;;;;;69.82;66.63;;;;;;;15.11;57.84;102346.38;4959752;28;19973;-66
2023/09/24 05:53:20;;;;;;;70.70;67.50;;;;;;;15.11;57.61;102348.28;4967536;28;20038;-66
2023/09/24 05:55:53;;;;;;;74.38;70.80;;;;;;;15.09;57.65;102353.97;4961090;28;20050;-66
2023/09/24 05:58:18;;;;;;;73.82;70.43;;;;;;;15.09;57.76;102362.16;4966801;28;20023;-67
2023/09/24 06:00:45;;;;;;;74.72;71.15;;;;;;;15.07;57.82;102358.81;4957611;28;20471;-67
2023/09/24 06:03:13;;;;;;;74.35;70.82;;;;;;;15.07;57.70;102363.44;4957025;28;20038;-67
2023/09/24 06:05:38;;;;;;;74.57;71.07;;;;;;;15.06;57.86;102362.59;4970732;28;20076;-68
2023/09/24 06:08:05;;;;;;;74.00;70.53;;;;;;;15.04;57.99;102355.72;4973319;28;20050;-68
2023/09/24 06:10:31;;;;;;;76.32;72.82;;;;;;;15.04;57.96;102355.72;4973888;28;20138;-70
2023/09/24 06:12:56;;;;;;;74.50;71.00;;;;;;;15.03;57.84;102354.91;4961677;28;20110;-68
2023/09/24 06:15:22;;;;;;;74.03;70.53;;;;;;;15.01;57.98;102354.31;4959926;28;20035;-66
2023/09/24 06:17:49;;;;;;;74.47;70.88;;;;;;;15.00;57.80;102358.09;4963952;28;20126;-67
2023/09/24 06:20:16;;;;;;;74.90;71.50;;;;;;;15.00;57.91;102354.56;4954879;28;20039;-67
2023/09/24 06:22:42;;;;;;;76.35;72.32;;;;;;;14.98;57.98;102357.50;4960898;28;20042;-67
2023/09/24 06:25:08;;;;;;;74.53;70.93;;;;;;;14.98;58.00;102371.09;4971136;28;20035;-67
2023/09/24 06:27:33;;;;;;;75.03;71.63;;;;;;;14.97;57.95;102368.59;4960802;28;20039;-69
2023/09/24 06:29:59;;;;;;;75.72;72.22;;;;;;;14.95;58.04;102362.59;4954436;28;20065;-67
2023/09/24 06:32:28;;;;;;;76.25;72.63;;;;;;;14.95;57.82;102362.59;4955755;28;20394;-67
2023/09/24 06:34:54;;;;;;;74.75;71.25;;;;;;;14.92;57.82;102367.41;4967990;28;20034;-67
2023/09/24 06:37:20;;;;;;;78.35;74.75;;;;;;;14.92;57.96;102369.31;4963000;28;20030;-67
2023/09/24 06:39:45;;;;;;;73.07;69.57;;;;;;;14.91;57.95;102359.47;4962683;28;20046;-67
2023/09/24 06:42:11;;;;;;;74.85;71.35;;;;;;;14.92;57.76;102374.75;4967901;28;20098;-70
2023/09/24 06:44:36;;;;;;;74.43;70.93;;;;;;;14.90;58.08;102380.41;4965351;28;20050;-72
2023/09/24 06:47:02;;;;;;;76.55;72.85;;;;;;;14.89;58.12;102384.22;4961847;28;20114;-68
2023/09/24 06:49:28;;;;;;;73.35;69.90;;;;;;;14.89;57.70;102375.19;4953440;28;20166;-69
2023/09/24 06:51:53;;;;;;;78.32;74.38;;;;;;;14.88;57.93;102376.28;4959561;28;20027;-67
2023/09/24 06:54:20;;;;;;;73.38;69.78;;;;;;;14.87;57.91;102372.72;4970287;28;20125;-69
2023/09/24 06:56:45;;;;;;;80.07;76.30;;;;;;;14.87;58.09;102380.88;4953732;28;20145;-72
2023/09/24 06:59:11;;;;;;;72.60;69.30;;;;;;;14.86;58.18;102386.56;4968254;28;20382;-72
2023/09/24 07:01:37;;;;;;;71.57;68.28;;;;;;;14.86;58.00;102390.09;4969691;28;20085;-71
2023/09/24 07:04:04;;;;;;;78.28;74.57;;;;;;;14.84;58.04;102375.91;4956939;28;20054;-69
2023/09/24 07:06:30;;;;;;;73.53;69.75;;;;;;;14.84;57.92;102383.22;4960759;28;20043;-69
2023/09/24 07:08:56;;;;;;;77.10;73.50;;;;;;;14.84;57.65;102380.50;4968043;28;20034;-70
2023/09/24 07:11:34;;;;;;;76.22;72.70;;;;;;;14.83;57.81;102378.84;4962094;28;20054;-68
2023/09/24 07:14:01;;;;;;;77.97;74.37;;;;;;;14.82;57.91;102379.94;4966844;28;20027;-71
2023/09/24 07:16:27;;;;;;;71.93;68.65;;;;;;;14.81;57.95;102378.25;4972667;28;20035;-68
2023/09/24 07:18:54;;;;;;;77.32;73.45;;;;;;;14.81;58.21;102370.09;4970515;28;20049;-69
2023/09/24 07:21:26;;;;;;;72.25;68.85;;;;;;;14.80;57.63;102379.31;4962070;28;20035;-71
2023/09/24 07:23:54;;;;;;;76.85;72.97;;;;;;;14.80;57.92;102387.50;4964829;28;20039;-68
2023/09/24 07:26:20;;;;;;;73.43;69.85;;;;;;;14.79;57.78;102386.66;4970206;28;20039;-68
2023/09/24 07:28:45;;;;;;;74.35;70.45;;;;;;;14.79;57.86;102389.38;4969904;28;20046;-68
2023/09/24 07:31:21;;;;;;;72.22;68.80;;;;;;;14.77;57.94;102386.06;4971135;28;20034;-68
2023/09/24 07:33:53;;;;;;;74.85;71.18;;;;;;;14.78;57.79;102389.59;4970808;28;20046;-69
2023/09/24 07:36:19;;;;;;;73.43;69.68;;;;;;;14.76;57.92;102395.25;4963426;28;20034;-69
2023/09/24 07:38:45;;;;;;;70.53;67.05;;;;;;;14.77;57.89;102407.00;4963253;28;20043;-68
2023/09/24 07:41:11;;;;;;;70.15;66.75;;;;;;;14.76;57.82;102405.31;4967696;28;20034;-68
2023/09/24 07:43:37;;;;;;;69.47;66.13;;;;;;;14.75;57.69;102409.13;4953543;28;20502;-68
2023/09/24 07:46:04;;;;;;;70.70;67.20;;;;;;;14.74;58.01;102413.72;4959413;28;20049;-70
2023/09/24 07:48:30;;;;;;;68.45;65.22;;;;;;;14.75;57.67;102411.84;4966592;28;20060;-68
2023/09/24 07:50:56;;;;;;;70.75;67.38;;;;;;;14.73;57.99;102420.22;4957556;28;20046;-70
2023/09/24 07:53:22;;;;;;;70.40;67.03;;;;;;;14.74;58.05;102419.16;4958341;28;20039;-68
2023/09/24 07:55:58;;;;;;;70.45;66.85;;;;;;;14.73;58.05;102416.66;4956758;28;20047;-68
2023/09/24 07:58:24;;;;;;;68.00;64.90;;;;;;;14.73;57.81;102413.94;4963661;28;20073;-67
2023/09/24 08:00:51;;;;;;;70.40;67.10;;;;;;;14.73;57.84;102419.38;4966673;28;20035;-66
2023/09/24 08:03:17;;;;;;;71.05;67.43;;;;;;;14.73;57.68;102420.22;4969496;28;20042;-66
2023/09/24 08:05:42;;;;;;;67.78;64.70;;;;;;;14.73;57.95;102412.06;4970883;28;20039;-69
2023/09/24 08:08:08;;;;;;;68.97;65.45;;;;;;;14.73;58.12;102406.59;4967216;28;20035;-66
2023/09/24 08:10:33;;;;;;;70.72;67.30;;;;;;;14.73;58.17;102409.31;4971787;28;20027;-66
2023/09/24 08:12:59;;;;;;;69.65;66.30;;;;;;;14.74;57.84;102411.00;4967791;28;20042;-67
2023/09/24 08:15:24;;;;;;;68.90;65.30;;;;;;;14.74;57.73;102407.44;4960198;28;20202;-67
2023/09/24 08:17:49;;;;;;;70.60;67.00;;;;;;;14.74;58.10;102418.31;4965912;28;20188;-67
2023/09/24 08:20:15;;;;;;;66.55;63.35;;;;;;;14.73;58.03;102417.50;4973388;28;20491;-66
2023/09/24 08:22:41;;;;;;;66.80;63.40;;;;;;;14.74;58.01;102415.59;4961266;28;20046;-66
2023/09/24 08:25:07;;;;;;;69.25;65.78;;;;;;;14.76;57.99;102424.38;4971993;28;20046;-66
2023/09/24 08:27:33;;;;;;;68.43;65.22;;;;;;;14.75;58.14;102425.44;4962961;28;20046;-68
2023/09/24 08:29:58;;;;;;;71.75;68.25;;;;;;;14.75;58.05;102428.97;4971619;28;20047;-69
2023/09/24 08:32:23;;;;;;;68.88;65.28;;;;;;;14.77;58.21;102428.75;4974151;28;20038;-69
2023/09/24 08:34:49;;;;;;;71.82;68.47;;;;;;;14.79;58.01;102426.63;4963807;28;20031;-69
2023/09/24 08:37:14;;;;;;;70.65;67.13;;;;;;;14.80;58.47;102431.00;4967396;28;20035;-68
2023/09/24 08:39:40;;;;;;;68.90;65.75;;;;;;;14.80;58.20;102433.72;4964791;28;20039;-68
2023/09/24 08:42:10;;;;;;;68.43;65.28;;;;;;;14.81;58.50;102432.66;4968094;28;20257;-69
2023/09/24 08:44:39;;;;;;;70.15;66.95;;;;;;;14.81;58.42;102430.75;4963460;28;20471;-70
2023/09/24 08:47:05;;;;;;;71.38;67.80;;;;;;;14.82;58.50;102437.06;4973114;28;20034;-70
2023/09/24 08:49:30;;;;;;;70.53;67.22;;;;;;;14.84;58.74;102434.91;4957939;28;20072;-68
2023/09/24 08:51:58;;;;;;;71.47;68.07;;;;;;;14.85;58.75;102431.16;4969738;28;20046;-71
2023/09/24 08:54:24;;;;;;;69.77;66.47;;;;;;;14.87;58.83;102442.66;4971225;28;20031;-68
2023/09/24 08:56:50;;;;;;;70.32;66.95;;;;;;;14.88;58.94;102433.41;4967599;28;20552;-69
2023/09/24 08:59:15;;;;;;;70.05;66.78;;;;;;;14.90;58.90;102432.13;4969945;28;20035;-67
2023/09/24 09:01:41;;;;;;;71.75;68.25;;;;;;;14.92;58.85;102418.28;4971710;28;20391;-69
2023/09/24 09:04:06;;;;;;;69.90;66.60;;;;;;;14.96;58.77;102429.53;4970056;28;20395;-69
2023/09/24 09:06:38;;;;;;;68.20;64.57;;;;;;;14.99;58.88;102421.72;4964249;28;20050;-68
2023/09/24 09:09:03;;;;;;;70.95;67.57;;;;;;;15.01;58.96;102425.06;4958618;28;20118;-69
2023/09/24 09:11:42;;;;;;;69.15;65.82;;;;;;;15.04;59.35;102412.88;4962555;28;20488;-67
2023/09/24 09:14:09;;;;;;;73.65;70.10;;;;;;;15.05;59.21;102417.28;4958614;28;20059;-68
2023/09/24 09:16:57;;;;;;;72.15;68.65;;;;;;;15.07;59.19;102409.72;4961968;28;20405;-68
2023/09/24 09:19:23;;;;;;;69.90;66.60;;;;;;;15.10;59.40;102410.06;4957170;28;20427;-68
2023/09/24 09:21:48;;;;;;;69.80;66.60;;;;;;;15.12;59.88;102407.94;4961406;28;20031;-69
2023/09/24 09:24:23;;;;;;;70.80;66.65;;;;;;;15.15;59.56;102401.22;4968506;28;20466;-69
2023/09/24 09:26:58;;;;;;;71.28;67.75;;;;;;;15.20;59.67;102392.34;4956602;28;20107;-69
2023/09/24 09:29:24;;;;;;;70.78;67.32;;;;;;;15.24;59.30;102393.53;4963491;28;20101;-69
2023/09/24 09:31:50;;;;;;;72.53;68.93;;;;;;;15.26;59.57;102386.78;4958725;28;20088;-69
2023/09/24 09:34:16;;;;;;;70.57;67.28;;;;;;;15.31;60.00;102380.63;4955577;28;20430;-68
2023/09/24 09:36:42;;;;;;;72.70;68.75;;;;;;;15.34;59.99;102391.06;4954690;28;20078;-70
2023/09/24 09:39:08;;;;;;;73.40;69.82;;;;;;;15.38;59.88;102389.53;4966880;28;20031;-68
2023/09/24 09:41:34;;;;;;;76.18;72.68;;;;;;;15.43;59.77;102388.84;4982237;28;20404;-72
2023/09/24 09:44:05;;;;;;;76.45;72.72;;;;;;;15.47;60.36;102384.56;4956725;28;20042;-70
2023/09/24 09:46:34;;;;;;;75.45;71.88;;;;;;;15.50;59.89;102387.66;4965823;28;20041;-69
2023/09/24 09:49:07;;;;;;;76.10;72.57;;;;;;;15.54;60.17;102385.28;4960509;28;20449;-67
2023/09/24 09:51:46;;;;;;;74.68;71.13;;;;;;;15.59;60.28;102385.41;4954611;28;20106;-68
2023/09/24 09:54:12;;;;;;;75.78;72.15;;;;;;;15.63;60.16;102385.78;4961465;28;20039;-67
2023/09/24 09:56:38;;;;;;;77.28;73.60;;;;;;;15.66;60.12;102374.41;4955026;28;20055;-68
2023/09/24 09:59:04;;;;;;;78.38;74.47;;;;;;;15.71;60.29;102363.66;4969907;28;20038;-67
2023/09/24 10:01:31;;;;;;;78.60;74.78;;;;;;;15.74;59.89;102363.16;4971472;28;20041;-67
2023/09/24 10:03:59;;;;;;;77.63;74.05;;;;;;;15.77;60.01;102368.13;4969450;28;20069;-69
2023/09/24 10:06:26;;;;;;;76.80;73.30;;;;;;;15.81;60.32;102363.06;4964017;28;20085;-68
2023/09/24 10:08:53;;;;;;;79.25;74.93;;;;;;;15.86;60.21;102363.16;4968073;28;20046;-69
2023/09/24 10:11:30;;;;;;;80.97;76.97;;;;;;;15.90;60.19;102358.88;4962475;28;20646;-67
2023/09/24 10:13:56;;;;;;;80.35;76.65;;;;;;;15.95;60.04;102364.44;4969243;28;20022;-67
2023/09/24 10:16:25;;;;;;;77.95;74.47;;;;;;;15.98;60.53;102356.63;4960519;28;20050;-69
2023/09/24 10:19:01;;;;;;;81.18;77.28;;;;;;;16.03;60.11;102355.91;4963394;28;20036;-67
2023/09/24 10:21:42;;;;;;;83.32;79.25;;;;;;;16.07;60.54;102359.81;4959875;28;20380;-68
2023/09/24 10:24:13;;;;;;;79.22;75.53;;;;;;;16.10;60.38;102350.31;4960581;28;20422;-68
2023/09/24 10:27:02;;;;;;;81.28;77.57;;;;;;;16.14;60.21;102348.78;4954320;28;20051;-68
2023/09/24 10:29:46;;;;;;;;;;;;;;;16.18;60.27;102347.25;4972561;28;20031;-69
2023/09/24 10:32:13;;;;;;;76.43;72.93;;;;;;;16.20;59.91;102348.66;4961359;28;19918;-67
2023/09/24 10:34:51;;;;;;;79.50;75.82;;;;;;;16.23;60.34;102344.63;4973428;28;20019;-69
2023/09/24 10:37:17;;;;;;;79.05;75.13;;;;;;;16.28;59.96;102341.13;4955286;28;20041;-69
2023/09/24 10:40:11;;;;;;;84.15;80.45;;;;;;;16.31;60.30;102344.22;4956104;28;20043;-68
2023/09/24 10:42:38;;;;;;;82.22;78.60;;;;;;;16.35;60.23;102339.09;4969570;28;20501;-70
2023/09/24 10:45:07;;;;;;;84.28;80.38;;;;;;;16.40;60.00;102340.06;4959770;28;20043;-68
2023/09/24 10:47:34;;;;;;;82.28;78.68;;;;;;;16.43;60.32;102334.09;4972182;28;20061;-68
2023/09/24 10:50:03;;;;;;;85.80;82.00;;;;;;;16.46;60.11;102338.25;4965598;28;20043;-71
2023/09/24 10:52:44;;;;;;;84.20;80.40;;;;;;;16.51;59.83;102345.72;4960997;28;20058;-68
2023/09/24 10:55:10;;;;;;;86.22;82.32;;;;;;;16.54;59.90;102339.75;4971370;28;20482;-67
2023/09/24 10:57:36;;;;;;;84.53;80.72;;;;;;;16.58;60.12;102338.19;4966534;28;20078;-77
2023/09/24 11:00:02;;;;;;;89.30;85.10;;;;;;;16.61;59.91;102335.00;4953157;28;20406;-79
2023/09/24 11:02:28;;;;;;;87.53;83.32;;;;;;;16.64;59.53;102337.22;4970245;28;20089;-74
2023/09/24 11:04:53;;;;;;;87.43;83.43;;;;;;;16.69;59.60;102342.78;4966627;28;20039;-74
2023/09/24 11:07:19;;;;;;;88.90;84.70;;;;;;;16.73;59.69;102341.22;4970327;28;20035;-75
2023/09/24 11:09:49;;;;;;;86.80;82.70;;;;;;;16.78;59.00;102335.03;4955843;28;20035;-75